sensor_id;sensor_type;location;lat;lon;timestamp;pressure;altitude;pressure_sealevel;temperature;humidity
69153;BME280;56261;51.580;4.578;2023-02-07T00:00:41;104142.75;;;0.22;100.00
69153;BME280;56261;51.580;4.578;2023-02-07T00:03:07;104144.63;;;0.12;100.00
69153;BME280;56261;51.580;4.578;2023-02-07T00:05:32;104144.63;;;0.12;100.00
69153;BME280;56261;51.580;4.578;2023-02-07T00:07:57;104141.19;;;0.07;100.00
69153;BME280;56261;51.580;4.578;2023-02-07T00:10:23;104142.97;;;0.04;100.00
69153;BME280;56261;51.580;4.578;2023-02-07T00:12:48;104146.63;;;-0.07;100.00
69153;BME280;56261;51.580;4.578;2023-02-07T00:15:14;104135.34;;;-0.15;100.00
69153;BME280;56261;51.580;4.578;2023-02-07T00:17:40;104142.34;;;-0.15;100.00
69153;BME280;56261;51.580;4.578;2023-02-07T00:20:06;104137.16;;;-0.20;100.00
69153;BME280;56261;51.580;4.578;2023-02-07T00:22:32;104146.75;;;-0.21;100.00
69153;BME280;56261;51.580;4.578;2023-02-07T00:24:58;104142.44;;;-0.25;100.00
69153;BME280;56261;51.580;4.578;2023-02-07T00:27:23;104130.16;;;-0.19;100.00
69153;BME280;56261;51.580;4.578;2023-02-07T00:29:48;104138.78;;;-0.10;100.00
69153;BME280;56261;51.580;4.578;2023-02-07T00:32:14;104131.75;;;-0.06;100.00
69153;BME280;56261;51.580;4.578;2023-02-07T00:34:39;104132.66;;;-0.10;100.00
69153;BME280;56261;51.580;4.578;2023-02-07T00:37:09;104136.22;;;-0.16;100.00
69153;BME280;56261;51.580;4.578;2023-02-07T00:39:34;104141.50;;;-0.19;100.00
69153;BME280;56261;51.580;4.578;2023-02-07T00:42:00;104134.59;;;-0.26;100.00
69153;BME280;56261;51.580;4.578;2023-02-07T00:44:25;104138.94;;;-0.24;100.00
69153;BME280;56261;51.580;4.578;2023-02-07T00:46:50;104140.72;;;-0.26;100.00
69153;BME280;56261;51.580;4.578;2023-02-07T00:49:16;104137.28;;;-0.34;100.00
69153;BME280;56261;51.580;4.578;2023-02-07T00:51:41;104138.19;;;-0.36;100.00
69153;BME280;56261;51.580;4.578;2023-02-07T00:54:07;104136.50;;;-0.40;100.00
69153;BME280;56261;51.580;4.578;2023-02-07T00:56:33;104135.56;;;-0.35;100.00
69153;BME280;56261;51.580;4.578;2023-02-07T00:58:58;104131.19;;;-0.34;100.00
69153;BME280;56261;51.580;4.578;2023-02-07T01:01:24;104134.72;;;-0.35;100.00
69153;BME280;56261;51.580;4.578;2023-02-07T01:03:52;104131.19;;;-0.31;100.00
69153;BME280;56261;51.580;4.578;2023-02-07T01:06:18;104128.50;;;-0.30;100.00
69153;BME280;56261;51.580;4.578;2023-02-07T01:08:43;104131.19;;;-0.34;100.00
69153;BME280;56261;51.580;4.578;2023-02-07T01:11:11;104139.06;;;-0.36;100.00
69153;BME280;56261;51.580;4.578;2023-02-07T01:13:37;104144.38;;;-0.40;100.00
69153;BME280;56261;51.580;4.578;2023-02-07T01:16:03;104132.19;;;-0.45;100.00
69153;BME280;56261;51.580;4.578;2023-02-07T01:18:29;104138.31;;;-0.47;100.00
69153;BME280;56261;51.580;4.578;2023-02-07T01:20:55;104126.97;;;-0.49;100.00
69153;BME280;56261;51.580;4.578;2023-02-07T01:23:20;104132.25;;;-0.52;100.00
69153;BME280;56261;51.580;4.578;2023-02-07T01:25:46;104134.88;;;-0.52;100.00
69153;BME280;56261;51.580;4.578;2023-02-07T01:28:13;104137.47;;;-0.49;100.00
69153;BME280;56261;51.580;4.578;2023-02-07T01:30:42;104129.63;;;-0.52;100.00
69153;BME280;56261;51.580;4.578;2023-02-07T01:33:08;104149.72;;;-0.50;100.00
69153;BME280;56261;51.580;4.578;2023-02-07T01:35:35;104145.31;;;-0.48;100.00
69153;BME280;56261;51.580;4.578;2023-02-07T01:38:01;104145.31;;;-0.48;100.00
69153;BME280;56261;51.580;4.578;2023-02-07T01:40:28;104141.03;;;-0.55;100.00
69153;BME280;56261;51.580;4.578;2023-02-07T01:42:54;104138.44;;;-0.58;100.00
69153;BME280;56261;51.580;4.578;2023-02-07T01:45:30;104150.66;;;-0.55;100.00
69153;BME280;56261;51.580;4.578;2023-02-07T01:48:01;104141.03;;;-0.56;100.00
69153;BME280;56261;51.580;4.578;2023-02-07T01:50:28;104138.44;;;-0.58;100.00
69153;BME280;56261;51.580;4.578;2023-02-07T01:52:54;104139.38;;;-0.64;100.00
69153;BME280;56261;51.580;4.578;2023-02-07T01:55:25;104136.75;;;-0.64;100.00
69153;BME280;56261;51.580;4.578;2023-02-07T01:57:52;104148.13;;;-0.65;100.00
69153;BME280;56261;51.580;4.578;2023-02-07T02:00:18;104150.72;;;-0.63;100.00
69153;BME280;56261;51.580;4.578;2023-02-07T02:02:44;104147.94;;;-0.46;100.00
69153;BME280;56261;51.580;4.578;2023-02-07T02:05:09;104149.66;;;-0.42;100.00
69153;BME280;56261;51.580;4.578;2023-02-07T02:07:38;104139.25;;;-0.51;100.00
69153;BME280;56261;51.580;4.578;2023-02-07T02:10:20;104149.78;;;-0.57;100.00
69153;BME280;56261;51.580;4.578;2023-02-07T02:13:39;104151.66;;;-0.69;100.00
69153;BME280;56261;51.580;4.578;2023-02-07T02:21:42;104145.59;;;-0.77;100.00
69153;BME280;56261;51.580;4.578;2023-02-07T02:30:42;104132.53;;;-0.80;100.00
69153;BME280;56261;51.580;4.578;2023-02-07T02:36:32;104129.94;;;-0.81;100.00
69153;BME280;56261;51.580;4.578;2023-02-07T02:44:34;104124.22;;;-0.37;100.00
69153;BME280;56261;51.580;4.578;2023-02-07T02:47:02;104138.31;;;-0.46;100.00
69153;BME280;56261;51.580;4.578;2023-02-07T02:49:28;104134.72;;;-0.35;100.00
69153;BME280;56261;51.580;4.578;2023-02-07T02:51:56;104132.16;;;-0.43;100.00
69153;BME280;56261;51.580;4.578;2023-02-07T02:54:34;104138.41;;;-0.55;100.00
69153;BME280;56261;51.580;4.578;2023-02-07T02:57:18;104127.16;;;-0.68;100.00
69153;BME280;56261;51.580;4.578;2023-02-07T03:09:03;104118.69;;;-0.93;100.00
69153;BME280;56261;51.580;4.578;2023-02-07T03:11:37;104122.19;;;-0.95;100.00
69153;BME280;56261;51.580;4.578;2023-02-07T03:14:35;104128.41;;;-1.09;100.00
69153;BME280;56261;51.580;4.578;2023-02-07T03:17:10;104124.03;;;-1.10;100.00
69153;BME280;56261;51.580;4.578;2023-02-07T03:19:43;104118.84;;;-1.13;100.00
69153;BME280;56261;51.580;4.578;2023-02-07T03:22:12;104126.75;;;-1.17;100.00
69153;BME280;56261;51.580;4.578;2023-02-07T03:24:44;104120.63;;;-1.18;100.00
69153;BME280;56261;51.580;4.578;2023-02-07T03:27:14;104108.41;;;-1.19;100.00
69153;BME280;56261;51.580;4.578;2023-02-07T03:29:45;104118.88;;;-1.16;100.00
69153;BME280;56261;51.580;4.578;2023-02-07T03:32:12;104130.22;;;-1.15;100.00
69153;BME280;56261;51.580;4.578;2023-02-07T03:34:51;104125.84;;;-1.16;100.00
69153;BME280;56261;51.580;4.578;2023-02-07T03:37:24;104123.28;;;-1.22;100.00
69153;BME280;56261;51.580;4.578;2023-02-07T03:39:50;104105.91;;;-1.33;100.00
69153;BME280;56261;51.580;4.578;2023-02-07T03:42:27;104112.81;;;-1.26;100.00
69153;BME280;56261;51.580;4.578;2023-02-07T03:44:55;104107.66;;;-1.32;100.00
69153;BME280;56261;51.580;4.578;2023-02-07T03:47:22;104116.34;;;-1.28;100.00
69153;BME280;56261;51.580;4.578;2023-02-07T03:49:49;104119.84;;;-1.32;100.00
69153;BME280;56261;51.580;4.578;2023-02-07T03:52:14;104125.13;;;-1.35;100.00
69153;BME280;56261;51.580;4.578;2023-02-07T03:54:39;104111.22;;;-1.42;100.00
69153;BME280;56261;51.580;4.578;2023-02-07T03:57:05;104118.16;;;-1.38;100.00
69153;BME280;56261;51.580;4.578;2023-02-07T03:59:30;104111.97;;;-1.24;100.00
69153;BME280;56261;51.580;4.578;2023-02-07T04:01:56;104112.75;;;-1.15;100.00
69153;BME280;56261;51.580;4.578;2023-02-07T04:04:21;104121.50;;;-1.17;100.00
69153;BME280;56261;51.580;4.578;2023-02-07T04:06:46;104119.81;;;-1.24;100.00
69153;BME280;56261;51.580;4.578;2023-02-07T04:09:12;104116.25;;;-1.16;100.00
69153;BME280;56261;51.580;4.578;2023-02-07T04:11:37;104124.13;;;-1.19;100.00
69153;BME280;56261;51.580;4.578;2023-02-07T04:14:03;104121.50;;;-1.17;100.00
69153;BME280;56261;51.580;4.578;2023-02-07T04:16:28;104121.38;;;-1.05;100.00
69153;BME280;56261;51.580;4.578;2023-02-07T04:18:54;104102.09;;;-0.96;100.00
69153;BME280;56261;51.580;4.578;2023-02-07T04:21:19;104121.00;;;-0.62;100.00
69153;BME280;56261;51.580;4.578;2023-02-07T04:23:44;104098.44;;;-0.78;100.00
69153;BME280;56261;51.580;4.578;2023-02-07T04:26:10;104114.22;;;-0.83;100.00
69153;BME280;56261;51.580;4.578;2023-02-07T04:28:35;104103.69;;;-0.78;100.00
69153;BME280;56261;51.580;4.578;2023-02-07T04:31:01;104105.25;;;-0.60;100.00
69153;BME280;56261;51.580;4.578;2023-02-07T04:33:26;104113.91;;;-0.52;100.00
69153;BME280;56261;51.580;4.578;2023-02-07T04:35:56;104126.97;;;-0.46;100.00
69153;BME280;56261;51.580;4.578;2023-02-07T04:38:22;104116.69;;;-0.65;100.00
69153;BME280;56261;51.580;4.578;2023-02-07T04:40:47;104109.69;;;-0.66;100.00
69153;BME280;56261;51.580;4.578;2023-02-07T04:43:12;104117.63;;;-0.76;100.00
69153;BME280;56261;51.580;4.578;2023-02-07T04:45:38;104110.56;;;-0.67;100.00
69153;BME280;56261;51.580;4.578;2023-02-07T04:48:03;104112.34;;;-0.72;100.00
69153;BME280;56261;51.580;4.578;2023-02-07T04:50:29;104119.50;;;-0.86;100.00
69153;BME280;56261;51.580;4.578;2023-02-07T04:52:54;104115.25;;;-0.98;100.00
69153;BME280;56261;51.580;4.578;2023-02-07T04:55:20;104122.25;;;-1.00;100.00
69153;BME280;56261;51.580;4.578;2023-02-07T04:57:47;104106.34;;;-0.83;100.00
69153;BME280;56261;51.580;4.578;2023-02-07T05:00:13;104093.94;;;-0.64;100.00
69153;BME280;56261;51.580;4.578;2023-02-07T05:02:39;104107.75;;;-0.50;100.00
69153;BME280;56261;51.580;4.578;2023-02-07T05:05:05;104108.25;;;-0.15;100.00
69153;BME280;56261;51.580;4.578;2023-02-07T05:07:31;104106.50;;;-0.15;100.00
69153;BME280;56261;51.580;4.578;2023-02-07T05:09:56;104104.84;;;-0.24;100.00
69153;BME280;56261;51.580;4.578;2023-02-07T05:12:21;104115.09;;;-0.05;100.00
69153;BME280;56261;51.580;4.578;2023-02-07T05:14:47;104111.91;;;-0.30;100.00
69153;BME280;56261;51.580;4.578;2023-02-07T05:17:12;104116.25;;;-0.29;100.00
69153;BME280;56261;51.580;4.578;2023-02-07T05:19:38;104122.31;;;-0.23;100.00
69153;BME280;56261;51.580;4.578;2023-02-07T05:22:03;104127.56;;;-0.23;100.00
69153;BME280;56261;51.580;4.578;2023-02-07T05:24:28;104139.81;;;-0.25;100.00
69153;BME280;56261;51.580;4.578;2023-02-07T05:26:54;104125.84;;;-0.24;100.00
69153;BME280;56261;51.580;4.578;2023-02-07T05:29:19;104139.84;;;-0.26;100.00
69153;BME280;56261;51.580;4.578;2023-02-07T05:31:45;104141.63;;;-0.30;100.00
69153;BME280;56261;51.580;4.578;2023-02-07T05:34:28;104147.66;;;-0.20;100.00
69153;BME280;56261;51.580;4.578;2023-02-07T05:36:54;104149.50;;;-0.30;100.00
69153;BME280;56261;51.580;4.578;2023-02-07T05:39:20;104140.81;;;-0.33;100.00
69153;BME280;56261;51.580;4.578;2023-02-07T05:41:45;104140.88;;;-0.38;100.00
69153;BME280;56261;51.580;4.578;2023-02-07T05:44:10;104140.88;;;-0.41;100.00
69153;BME280;56261;51.580;4.578;2023-02-07T05:46:36;104149.59;;;-0.40;100.00
69153;BME280;56261;51.580;4.578;2023-02-07T05:49:02;104143.50;;;-0.43;100.00
69153;BME280;56261;51.580;4.578;2023-02-07T05:51:27;104147.94;;;-0.45;100.00
69153;BME280;56261;51.580;4.578;2023-02-07T05:53:53;104151.31;;;-0.35;100.00
69153;BME280;56261;51.580;4.578;2023-02-07T05:56:18;104138.19;;;-0.36;100.00
69153;BME280;56261;51.580;4.578;2023-02-07T05:58:44;104135.47;;;-0.27;100.00
69153;BME280;56261;51.580;4.578;2023-02-07T06:01:09;104136.38;;;-0.28;100.00
69153;BME280;56261;51.580;4.578;2023-02-07T06:03:34;104136.25;;;-0.19;100.00
69153;BME280;56261;51.580;4.578;2023-02-07T06:06:00;104139.91;;;-0.31;100.00
69153;BME280;56261;51.580;4.578;2023-02-07T06:08:25;104137.19;;;-0.23;100.00
69153;BME280;56261;51.580;4.578;2023-02-07T06:10:50;104148.53;;;-0.21;100.00
69153;BME280;56261;51.580;4.578;2023-02-07T06:13:16;104152.91;;;-0.22;100.00
69153;BME280;56261;51.580;4.578;2023-02-07T06:15:41;104147.88;;;-0.42;100.00
69153;BME280;56261;51.580;4.578;2023-02-07T06:18:07;104155.84;;;-0.52;100.00
69153;BME280;56261;51.580;4.578;2023-02-07T06:20:32;104146.19;;;-0.47;100.00
69153;BME280;56261;51.580;4.578;2023-02-07T06:22:58;104153.22;;;-0.51;100.00
69153;BME280;56261;51.580;4.578;2023-02-07T06:25:24;104158.56;;;-0.63;100.00
69153;BME280;56261;51.580;4.578;2023-02-07T06:27:49;104162.19;;;-0.73;100.00
69153;BME280;56261;51.580;4.578;2023-02-07T06:30:14;104159.63;;;-0.81;100.00
69153;BME280;56261;51.580;4.578;2023-02-07T06:32:40;104160.50;;;-0.82;100.00
69153;BME280;56261;51.580;4.578;2023-02-07T06:35:06;104156.22;;;-0.92;100.00
69153;BME280;56261;51.580;4.578;2023-02-07T06:37:31;104151.97;;;-1.06;100.00
69153;BME280;56261;51.580;4.578;2023-02-07T06:39:57;104166.81;;;-1.05;100.00
69153;BME280;56261;51.580;4.578;2023-02-07T06:42:22;104164.97;;;-0.95;100.00
69153;BME280;56261;51.580;4.578;2023-02-07T06:44:48;104165.91;;;-1.03;100.00
69153;BME280;56261;51.580;4.578;2023-02-07T06:47:13;104164.97;;;-0.93;100.00
69153;BME280;56261;51.580;4.578;2023-02-07T06:49:38;104164.91;;;-0.87;100.00
69153;BME280;56261;51.580;4.578;2023-02-07T06:52:04;104169.31;;;-0.92;100.00
69153;BME280;56261;51.580;4.578;2023-02-07T06:54:29;104159.66;;;-0.86;100.00
69153;BME280;56261;51.580;4.578;2023-02-07T06:56:54;104171.81;;;-0.78;100.00
69153;BME280;56261;51.580;4.578;2023-02-07T06:59:20;104161.38;;;-0.81;100.00
69153;BME280;56261;51.580;4.578;2023-02-07T07:01:45;104170.91;;;-0.74;100.00
69153;BME280;56261;51.580;4.578;2023-02-07T07:04:11;104164.03;;;-0.88;100.00
69153;BME280;56261;51.580;4.578;2023-02-07T07:06:36;104169.28;;;-0.86;100.00
69153;BME280;56261;51.580;4.578;2023-02-07T07:09:02;104171.97;;;-0.95;100.00
69153;BME280;56261;51.580;4.578;2023-02-07T07:11:28;104172.03;;;-1.05;100.00
69153;BME280;56261;51.580;4.578;2023-02-07T07:13:53;104175.50;;;-0.99;100.00
69153;BME280;56261;51.580;4.578;2023-02-07T07:16:19;104171.16;;;-1.00;100.00
69153;BME280;56261;51.580;4.578;2023-02-07T07:18:44;104177.22;;;-0.98;100.00
69153;BME280;56261;51.580;4.578;2023-02-07T07:21:10;104183.31;;;-0.96;100.00
69153;BME280;56261;51.580;4.578;2023-02-07T07:23:36;104183.38;;;-1.04;100.00
69153;BME280;56261;51.580;4.578;2023-02-07T07:26:02;104187.69;;;-0.98;100.00
69153;BME280;56261;51.580;4.578;2023-02-07T07:28:27;104189.44;;;-0.97;100.00
69153;BME280;56261;51.580;4.578;2023-02-07T07:30:53;104190.31;;;-0.98;100.00
69153;BME280;56261;51.580;4.578;2023-02-07T07:33:18;104192.09;;;-1.00;100.00
69153;BME280;56261;51.580;4.578;2023-02-07T07:35:44;104194.66;;;-0.94;100.00
69153;BME280;56261;51.580;4.578;2023-02-07T07:38:09;104192.03;;;-0.94;100.00
69153;BME280;56261;51.580;4.578;2023-02-07T07:40:35;104188.63;;;-1.04;100.00
69153;BME280;56261;51.580;4.578;2023-02-07T07:43:00;104184.25;;;-1.05;100.00
69153;BME280;56261;51.580;4.578;2023-02-07T07:45:26;104192.16;;;-1.08;100.00
69153;BME280;56261;51.580;4.578;2023-02-07T07:47:51;104184.34;;;-1.17;100.00
69153;BME280;56261;51.580;4.578;2023-02-07T07:50:17;104180.91;;;-1.22;100.00
69153;BME280;56261;51.580;4.578;2023-02-07T07:52:42;104192.25;;;-1.22;100.00
69153;BME280;56261;51.580;4.578;2023-02-07T07:55:08;104179.97;;;-1.15;100.00
69153;BME280;56261;51.580;4.578;2023-02-07T07:57:34;104182.59;;;-1.17;100.00
69153;BME280;56261;51.580;4.578;2023-02-07T08:00:00;104168.59;;;-1.11;100.00
69153;BME280;56261;51.580;4.578;2023-02-07T08:02:26;104178.16;;;-1.02;100.00
69153;BME280;56261;51.580;4.578;2023-02-07T08:04:52;104169.41;;;-1.01;100.00
69153;BME280;56261;51.580;4.578;2023-02-07T08:07:17;104180.72;;;-0.98;100.00
69153;BME280;56261;51.580;4.578;2023-02-07T08:09:43;104184.22;;;-0.99;100.00
69153;BME280;56261;51.580;4.578;2023-02-07T08:12:08;104178.06;;;-0.96;100.00
69153;BME280;56261;51.580;4.578;2023-02-07T08:14:34;104183.28;;;-0.89;100.00
69153;BME280;56261;51.580;4.578;2023-02-07T08:16:59;104152.97;;;-1.20;100.00
69153;BME280;56261;51.580;4.578;2023-02-07T08:19:24;104180.78;;;-1.02;100.00
69153;BME280;56261;51.580;4.578;2023-02-07T08:21:50;104188.56;;;-0.96;100.00
69153;BME280;56261;51.580;4.578;2023-02-07T08:24:15;104179.78;;;-0.91;100.00
69153;BME280;56261;51.580;4.578;2023-02-07T08:26:41;104179.72;;;-0.83;100.00
69153;BME280;56261;51.580;4.578;2023-02-07T08:29:06;104172.78;;;-0.89;100.00
69153;BME280;56261;51.580;4.578;2023-02-07T08:31:32;104178.84;;;-0.82;100.00
69153;BME280;56261;51.580;4.578;2023-02-07T08:33:57;104196.25;;;-0.76;100.00
69153;BME280;56261;51.580;4.578;2023-02-07T08:36:26;104187.53;;;-0.77;100.00
69153;BME280;56261;51.580;4.578;2023-02-07T08:38:51;104187.56;;;-0.80;100.00
69153;BME280;56261;51.580;4.578;2023-02-07T08:41:17;104185.69;;;-0.66;100.00
69153;BME280;56261;51.580;4.578;2023-02-07T08:43:42;104173.53;;;-0.73;100.00
69153;BME280;56261;51.580;4.578;2023-02-07T08:46:08;104187.31;;;-0.52;100.00
69153;BME280;56261;51.580;4.578;2023-02-07T08:48:33;104175.09;;;-0.53;100.00
69153;BME280;56261;51.580;4.578;2023-02-07T08:51:05;104207.34;;;-0.42;100.00
69153;BME280;56261;51.580;4.578;2023-02-07T08:53:31;104198.50;;;-0.33;100.00
69153;BME280;56261;51.580;4.578;2023-02-07T08:55:56;104193.31;;;-0.39;100.00
69153;BME280;56261;51.580;4.578;2023-02-07T08:58:22;104185.50;;;-0.44;100.00
69153;BME280;56261;51.580;4.578;2023-02-07T09:00:47;104202.84;;;-0.31;100.00
69153;BME280;56261;51.580;4.578;2023-02-07T09:03:13;104193.91;;;-0.13;100.00
69153;BME280;56261;51.580;4.578;2023-02-07T09:05:39;104200.81;;;-0.04;100.00
69153;BME280;56261;51.580;4.578;2023-02-07T09:08:04;104198.38;;;-0.21;100.00
69153;BME280;56261;51.580;4.578;2023-02-07T09:10:30;104189.69;;;-0.26;100.00
69153;BME280;56261;51.580;4.578;2023-02-07T09:12:56;104199.13;;;-0.11;100.00
69153;BME280;56261;51.580;4.578;2023-02-07T09:15:21;104204.75;;;0.32;100.00
69153;BME280;56261;51.580;4.578;2023-02-07T09:17:46;104200.66;;;0.11;100.00
69153;BME280;56261;51.580;4.578;2023-02-07T09:20:12;104212.81;;;0.15;100.00
69153;BME280;56261;51.580;4.578;2023-02-07T09:22:37;104196.53;;;-0.13;100.00
69153;BME280;56261;51.580;4.578;2023-02-07T09:25:21;104210.41;;;-0.03;100.00
69153;BME280;56261;51.580;4.578;2023-02-07T09:27:47;104199.91;;;-0.05;100.00
69153;BME280;56261;51.580;4.578;2023-02-07T09:30:12;104199.91;;;-0.02;100.00
69153;BME280;56261;51.580;4.578;2023-02-07T09:32:38;104207.19;;;-0.28;100.00
69153;BME280;56261;51.580;4.578;2023-02-07T09:35:03;104203.38;;;-0.01;100.00
69153;BME280;56261;51.580;4.578;2023-02-07T09:37:29;104203.38;;;0.01;100.00
69153;BME280;56261;51.580;4.578;2023-02-07T09:39:55;104194.81;;;-0.17;100.00
69153;BME280;56261;51.580;4.578;2023-02-07T09:44:56;104197.00;;;0.20;100.00
69153;BME280;56261;51.580;4.578;2023-02-07T09:47:24;104192.41;;;0.37;100.00
69153;BME280;56261;51.580;4.578;2023-02-07T09:49:57;104192.28;;;0.47;100.00
69153;BME280;56261;51.580;4.578;2023-02-07T09:52:32;104190.28;;;0.66;100.00
69153;BME280;56261;51.580;4.578;2023-02-07T09:54:59;104196.81;;;0.37;100.00
69153;BME280;56261;51.580;4.578;2023-02-07T09:57:29;104213.47;;;0.36;100.00
69153;BME280;56261;51.580;4.578;2023-02-07T10:00:04;104201.50;;;0.77;100.00
69153;BME280;56261;51.580;4.578;2023-02-07T10:05:28;104203.22;;;0.78;100.00
69153;BME280;56261;51.580;4.578;2023-02-07T10:07:55;104208.94;;;1.08;100.00
69153;BME280;56261;51.580;4.578;2023-02-07T10:10:40;104208.38;;;0.87;100.00
69153;BME280;56261;51.580;4.578;2023-02-07T10:13:24;104198.72;;;0.88;100.00
69153;BME280;56261;51.580;4.578;2023-02-07T10:16:06;104205.00;;;0.79;100.00
69153;BME280;56261;51.580;4.578;2023-02-07T10:18:48;104195.63;;;1.17;100.00
69153;BME280;56261;51.580;4.578;2023-02-07T10:27:13;104197.94;;;1.37;100.00
69153;BME280;56261;51.580;4.578;2023-02-07T10:32:30;104201.09;;;1.56;100.00
69153;BME280;56261;51.580;4.578;2023-02-07T10:35:14;104193.00;;;1.66;100.00
69153;BME280;56261;51.580;4.578;2023-02-07T10:37:42;104192.34;;;1.55;100.00
69153;BME280;56261;51.580;4.578;2023-02-07T10:40:29;104196.16;;;1.37;100.00
69153;BME280;56261;51.580;4.578;2023-02-07T10:43:03;104189.69;;;1.57;100.00
69153;BME280;56261;51.580;4.578;2023-02-07T10:45:29;104199.28;;;1.61;100.00
69153;BME280;56261;51.580;4.578;2023-02-07T10:47:55;104190.91;;;1.85;100.00
69153;BME280;56261;51.580;4.578;2023-02-07T10:50:23;104190.78;;;1.92;100.00
69153;BME280;56261;51.580;4.578;2023-02-07T10:52:53;104184.81;;;1.83;100.00
69153;BME280;56261;51.580;4.578;2023-02-07T10:55:42;104185.88;;;1.72;100.00
69153;BME280;56261;51.580;4.578;2023-02-07T10:58:22;104174.94;;;1.95;100.00
69153;BME280;56261;51.580;4.578;2023-02-07T11:00:51;104156.44;;;1.96;100.00
69153;BME280;56261;51.580;4.578;2023-02-07T11:03:22;104172.09;;;2.05;100.00
69153;BME280;56261;51.580;4.578;2023-02-07T11:05:57;104169.59;;;1.98;100.00
69153;BME280;56261;51.580;4.578;2023-02-07T11:08:30;104170.47;;;1.98;100.00
69153;BME280;56261;51.580;4.578;2023-02-07T11:10:59;104178.53;;;1.89;100.00
69153;BME280;56261;51.580;4.578;2023-02-07T11:13:27;104167.91;;;1.95;100.00
69153;BME280;56261;51.580;4.578;2023-02-07T11:18:35;104174.88;;;1.98;100.00
69153;BME280;56261;51.580;4.578;2023-02-07T11:21:26;104172.25;;;1.96;100.00
69153;BME280;56261;51.580;4.578;2023-02-07T11:23:56;104174.75;;;2.04;100.00
69153;BME280;56261;51.580;4.578;2023-02-07T11:26:23;104169.28;;;2.13;100.00
69153;BME280;56261;51.580;4.578;2023-02-07T11:29:16;104169.38;;;2.08;100.00
69153;BME280;56261;51.580;4.578;2023-02-07T11:31:44;104169.09;;;2.22;100.00
69153;BME280;56261;51.580;4.578;2023-02-07T11:34:35;104157.69;;;2.22;100.00
69153;BME280;56261;51.580;4.578;2023-02-07T11:39:45;104152.09;;;2.37;100.00
69153;BME280;56261;51.580;4.578;2023-02-07T11:42:22;104157.41;;;2.34;100.00
69153;BME280;56261;51.580;4.578;2023-02-07T11:44:49;104147.69;;;2.38;100.00
69153;BME280;56261;51.580;4.578;2023-02-07T11:47:27;104151.13;;;2.41;100.00
69153;BME280;56261;51.580;4.578;2023-02-07T11:49:58;104147.66;;;2.39;100.00
69153;BME280;56261;51.580;4.578;2023-02-07T11:52:25;104145.25;;;2.28;100.00
69153;BME280;56261;51.580;4.578;2023-02-07T11:54:57;104150.22;;;2.42;100.00
69153;BME280;56261;51.580;4.578;2023-02-07T11:57:27;104151.91;;;2.45;100.00
69153;BME280;56261;51.580;4.578;2023-02-07T12:00:03;104149.97;;;2.53;100.00
69153;BME280;56261;51.580;4.578;2023-02-07T12:02:33;104150.81;;;2.55;100.00
69153;BME280;56261;51.580;4.578;2023-02-07T12:05:15;104135.88;;;2.54;100.00
69153;BME280;56261;51.580;4.578;2023-02-07T12:07:46;104146.19;;;2.65;100.00
69153;BME280;56261;51.580;4.578;2023-02-07T12:10:19;104141.13;;;2.93;100.00
69153;BME280;56261;51.580;4.578;2023-02-07T12:13:04;104134.91;;;2.96;100.00
69153;BME280;56261;51.580;4.578;2023-02-07T12:15:37;104128.50;;;3.06;100.00
69153;BME280;56261;51.580;4.578;2023-02-07T12:20:45;104123.97;;;3.11;100.00
69153;BME280;56261;51.580;4.578;2023-02-07T12:23:24;104119.25;;;3.24;100.00
69153;BME280;56261;51.580;4.578;2023-02-07T12:26:05;104126.38;;;3.20;100.00
69153;BME280;56261;51.580;4.578;2023-02-07T12:28:42;104128.28;;;3.14;100.00
69153;BME280;56261;51.580;4.578;2023-02-07T12:34:20;104126.25;;;3.25;100.00
69153;BME280;56261;51.580;4.578;2023-02-07T12:36:54;104119.63;;;3.41;100.00
69153;BME280;56261;51.580;4.578;2023-02-07T12:39:42;104124.34;;;3.63;100.00
69153;BME280;56261;51.580;4.578;2023-02-07T12:42:23;104128.25;;;3.48;100.00
69153;BME280;56261;51.580;4.578;2023-02-07T12:44:55;104125.22;;;3.30;100.00
69153;BME280;56261;51.580;4.578;2023-02-07T12:47:46;104125.72;;;3.45;100.00
69153;BME280;56261;51.580;4.578;2023-02-07T12:50:59;104130.31;;;3.69;100.00
69153;BME280;56261;51.580;4.578;2023-02-07T12:59:34;104130.78;;;3.84;100.00
69153;BME280;56261;51.580;4.578;2023-02-07T13:02:23;104131.91;;;3.75;100.00
69153;BME280;56261;51.580;4.578;2023-02-07T13:07:46;104124.63;;;3.83;100.00
69153;BME280;56261;51.580;4.578;2023-02-07T13:16:20;104118.94;;;3.97;100.00
69153;BME280;56261;51.580;4.578;2023-02-07T13:18:59;104116.09;;;4.05;100.00
69153;BME280;56261;51.580;4.578;2023-02-07T13:24:01;104110.63;;;4.11;100.00
69153;BME280;56261;51.580;4.578;2023-02-07T13:26:29;104113.06;;;4.17;100.00
69153;BME280;56261;51.580;4.578;2023-02-07T13:29:03;104112.16;;;4.18;100.00
69153;BME280;56261;51.580;4.578;2023-02-07T13:31:37;104103.19;;;4.24;100.00
69153;BME280;56261;51.580;4.578;2023-02-07T13:34:11;104100.25;;;4.05;100.00
69153;BME280;56261;51.580;4.578;2023-02-07T13:36:44;104095.47;;;4.18;100.00
69153;BME280;56261;51.580;4.578;2023-02-07T13:44:19;104086.97;;;4.06;100.00
69153;BME280;56261;51.580;4.578;2023-02-07T13:49:53;104093.06;;;4.38;100.00
69153;BME280;56261;51.580;4.578;2023-02-07T13:52:41;104090.25;;;4.43;100.00
69153;BME280;56261;51.580;4.578;2023-02-07T13:57:46;104076.94;;;4.46;100.00
69153;BME280;56261;51.580;4.578;2023-02-07T14:00:58;104066.38;;;4.46;100.00
69153;BME280;56261;51.580;4.578;2023-02-07T14:03:21;104074.16;;;4.50;100.00
69153;BME280;56261;51.580;4.578;2023-02-07T14:05:48;104078.06;;;4.65;100.00
69153;BME280;56261;51.580;4.578;2023-02-07T14:13:31;104085.38;;;4.57;100.00
69153;BME280;56261;51.580;4.578;2023-02-07T14:16:04;104075.94;;;4.50;100.00
69153;BME280;56261;51.580;4.578;2023-02-07T14:21:27;104077.78;;;4.46;100.00
69153;BME280;56261;51.580;4.578;2023-02-07T14:34:20;104072.16;;;4.57;100.00